sensor_id;sensor_type;location;lat;lon;timestamp;P1;durP1;ratioP1;P2;durP2;ratioP2
53261;SDS011;39658;51.090;-1.786;2022-08-30T00:00:03;9.52;;;3.40;;
53261;SDS011;39658;51.090;-1.786;2022-08-30T00:02:51;9.85;;;2.78;;
53261;SDS011;39658;51.090;-1.786;2022-08-30T00:05:17;9.07;;;3.25;;
53261;SDS011;39658;51.090;-1.786;2022-08-30T00:07:44;8.20;;;3.10;;
53261;SDS011;39658;51.090;-1.786;2022-08-30T00:10:11;12.85;;;3.45;;
53261;SDS011;39658;51.090;-1.786;2022-08-30T00:12:38;9.63;;;3.20;;
53261;SDS011;39658;51.090;-1.786;2022-08-30T00:15:06;7.93;;;3.30;;
53261;SDS011;39658;51.090;-1.786;2022-08-30T00:17:34;9.85;;;3.30;;
53261;SDS011;39658;51.090;-1.786;2022-08-30T00:20:03;9.93;;;3.30;;
53261;SDS011;39658;51.090;-1.786;2022-08-30T00:22:31;11.20;;;3.45;;
53261;SDS011;39658;51.090;-1.786;2022-08-30T00:24:58;8.48;;;2.92;;
53261;SDS011;39658;51.090;-1.786;2022-08-30T00:27:26;7.55;;;2.95;;
53261;SDS011;39658;51.090;-1.786;2022-08-30T00:29:52;8.68;;;3.28;;
53261;SDS011;39658;51.090;-1.786;2022-08-30T00:32:20;10.85;;;3.08;;
53261;SDS011;39658;51.090;-1.786;2022-08-30T00:34:47;11.98;;;3.33;;
53261;SDS011;39658;51.090;-1.786;2022-08-30T00:37:15;8.93;;;3.25;;
53261;SDS011;39658;51.090;-1.786;2022-08-30T00:39:43;8.40;;;3.40;;
53261;SDS011;39658;51.090;-1.786;2022-08-30T00:42:10;8.95;;;3.38;;
53261;SDS011;39658;51.090;-1.786;2022-08-30T00:44:37;11.35;;;3.85;;
53261;SDS011;39658;51.090;-1.786;2022-08-30T00:47:05;12.32;;;3.28;;
53261;SDS011;39658;51.090;-1.786;2022-08-30T00:49:32;8.27;;;2.90;;
53261;SDS011;39658;51.090;-1.786;2022-08-30T00:51:59;11.35;;;3.53;;
53261;SDS011;39658;51.090;-1.786;2022-08-30T00:54:28;8.50;;;3.00;;
53261;SDS011;39658;51.090;-1.786;2022-08-30T00:56:56;9.05;;;3.00;;
53261;SDS011;39658;51.090;-1.786;2022-08-30T00:59:23;12.90;;;3.20;;
53261;SDS011;39658;51.090;-1.786;2022-08-30T01:01:53;11.23;;;3.50;;
53261;SDS011;39658;51.090;-1.786;2022-08-30T01:04:20;11.25;;;3.45;;
53261;SDS011;39658;51.090;-1.786;2022-08-30T01:06:49;11.25;;;3.88;;
53261;SDS011;39658;51.090;-1.786;2022-08-30T01:09:16;9.40;;;3.30;;
53261;SDS011;39658;51.090;-1.786;2022-08-30T01:11:45;10.05;;;3.45;;
53261;SDS011;39658;51.090;-1.786;2022-08-30T01:14:13;12.88;;;3.72;;
53261;SDS011;39658;51.090;-1.786;2022-08-30T01:16:41;10.43;;;3.50;;
53261;SDS011;39658;51.090;-1.786;2022-08-30T01:19:12;9.85;;;3.35;;
53261;SDS011;39658;51.090;-1.786;2022-08-30T01:21:49;12.30;;;3.90;;
53261;SDS011;39658;51.090;-1.786;2022-08-30T01:24:21;11.30;;;3.38;;
53261;SDS011;39658;51.090;-1.786;2022-08-30T01:26:48;14.73;;;4.03;;
53261;SDS011;39658;51.090;-1.786;2022-08-30T01:29:16;9.65;;;3.10;;
53261;SDS011;39658;51.090;-1.786;2022-08-30T01:31:46;10.95;;;3.35;;
53261;SDS011;39658;51.090;-1.786;2022-08-30T01:34:13;11.90;;;3.45;;
53261;SDS011;39658;51.090;-1.786;2022-08-30T01:36:41;10.27;;;3.10;;
53261;SDS011;39658;51.090;-1.786;2022-08-30T01:39:11;11.50;;;3.40;;
53261;SDS011;39658;51.090;-1.786;2022-08-30T01:41:41;13.77;;;3.60;;
53261;SDS011;39658;51.090;-1.786;2022-08-30T01:44:09;12.57;;;3.38;;
53261;SDS011;39658;51.090;-1.786;2022-08-30T01:46:38;9.84;;;3.08;;
53261;SDS011;39658;51.090;-1.786;2022-08-30T01:49:08;12.45;;;3.75;;
53261;SDS011;39658;51.090;-1.786;2022-08-30T01:51:37;11.15;;;3.35;;
53261;SDS011;39658;51.090;-1.786;2022-08-30T01:54:04;9.13;;;3.80;;
53261;SDS011;39658;51.090;-1.786;2022-08-30T01:56:31;8.77;;;3.20;;
53261;SDS011;39658;51.090;-1.786;2022-08-30T01:59:00;9.52;;;3.30;;
53261;SDS011;39658;51.090;-1.786;2022-08-30T02:01:27;13.23;;;3.55;;
53261;SDS011;39658;51.090;-1.786;2022-08-30T02:03:55;13.85;;;3.38;;
53261;SDS011;39658;51.090;-1.786;2022-08-30T02:06:22;13.35;;;3.42;;
53261;SDS011;39658;51.090;-1.786;2022-08-30T02:08:50;11.60;;;3.60;;
53261;SDS011;39658;51.090;-1.786;2022-08-30T02:11:16;9.23;;;2.97;;
53261;SDS011;39658;51.090;-1.786;2022-08-30T02:13:44;9.77;;;3.45;;
53261;SDS011;39658;51.090;-1.786;2022-08-30T02:16:13;10.82;;;3.13;;
53261;SDS011;39658;51.090;-1.786;2022-08-30T02:18:42;9.45;;;2.72;;
53261;SDS011;39658;51.090;-1.786;2022-08-30T02:21:09;10.98;;;3.10;;
53261;SDS011;39658;51.090;-1.786;2022-08-30T02:23:37;9.40;;;3.25;;
53261;SDS011;39658;51.090;-1.786;2022-08-30T02:26:04;8.35;;;2.90;;
53261;SDS011;39658;51.090;-1.786;2022-08-30T02:28:31;11.07;;;3.42;;
53261;SDS011;39658;51.090;-1.786;2022-08-30T02:30:57;9.13;;;3.15;;
53261;SDS011;39658;51.090;-1.786;2022-08-30T02:33:26;9.50;;;3.22;;
53261;SDS011;39658;51.090;-1.786;2022-08-30T02:35:53;7.93;;;3.25;;
53261;SDS011;39658;51.090;-1.786;2022-08-30T02:38:20;8.45;;;2.80;;
53261;SDS011;39658;51.090;-1.786;2022-08-30T02:40:47;11.98;;;3.60;;
53261;SDS011;39658;51.090;-1.786;2022-08-30T02:43:14;11.95;;;3.60;;
53261;SDS011;39658;51.090;-1.786;2022-08-30T02:45:41;8.52;;;2.88;;
53261;SDS011;39658;51.090;-1.786;2022-08-30T02:48:08;12.90;;;3.10;;
53261;SDS011;39658;51.090;-1.786;2022-08-30T02:50:39;11.40;;;3.70;;
53261;SDS011;39658;51.090;-1.786;2022-08-30T02:53:06;14.63;;;3.50;;
53261;SDS011;39658;51.090;-1.786;2022-08-30T02:55:33;10.38;;;3.47;;
53261;SDS011;39658;51.090;-1.786;2022-08-30T02:58:00;10.65;;;3.20;;
53261;SDS011;39658;51.090;-1.786;2022-08-30T03:00:26;12.77;;;3.42;;
53261;SDS011;39658;51.090;-1.786;2022-08-30T03:02:54;8.48;;;2.85;;
53261;SDS011;39658;51.090;-1.786;2022-08-30T03:05:20;11.93;;;3.47;;
53261;SDS011;39658;51.090;-1.786;2022-08-30T03:07:49;10.48;;;3.42;;
53261;SDS011;39658;51.090;-1.786;2022-08-30T03:10:16;9.98;;;3.20;;
53261;SDS011;39658;51.090;-1.786;2022-08-30T03:12:43;12.30;;;3.35;;
53261;SDS011;39658;51.090;-1.786;2022-08-30T03:15:12;11.35;;;3.60;;
53261;SDS011;39658;51.090;-1.786;2022-08-30T03:17:39;10.73;;;3.45;;
53261;SDS011;39658;51.090;-1.786;2022-08-30T03:20:07;16.73;;;3.45;;
53261;SDS011;39658;51.090;-1.786;2022-08-30T03:22:35;12.00;;;3.40;;
53261;SDS011;39658;51.090;-1.786;2022-08-30T03:25:03;12.73;;;3.70;;
53261;SDS011;39658;51.090;-1.786;2022-08-30T03:27:30;8.35;;;3.40;;
53261;SDS011;39658;51.090;-1.786;2022-08-30T03:29:57;9.20;;;3.35;;
53261;SDS011;39658;51.090;-1.786;2022-08-30T03:32:24;9.52;;;3.95;;
53261;SDS011;39658;51.090;-1.786;2022-08-30T03:34:51;10.25;;;3.65;;
53261;SDS011;39658;51.090;-1.786;2022-08-30T03:37:18;7.57;;;3.28;;
53261;SDS011;39658;51.090;-1.786;2022-08-30T03:39:45;10.45;;;3.92;;
53261;SDS011;39658;51.090;-1.786;2022-08-30T03:42:13;13.50;;;3.75;;
53261;SDS011;39658;51.090;-1.786;2022-08-30T03:44:40;14.57;;;3.75;;
53261;SDS011;39658;51.090;-1.786;2022-08-30T03:47:07;10.38;;;3.90;;
53261;SDS011;39658;51.090;-1.786;2022-08-30T03:49:34;11.90;;;3.30;;
53261;SDS011;39658;51.090;-1.786;2022-08-30T03:52:01;13.65;;;3.80;;
53261;SDS011;39658;51.090;-1.786;2022-08-30T03:54:28;13.75;;;4.00;;
53261;SDS011;39658;51.090;-1.786;2022-08-30T03:56:55;9.45;;;3.53;;
53261;SDS011;39658;51.090;-1.786;2022-08-30T03:59:23;8.40;;;3.40;;
53261;SDS011;39658;51.090;-1.786;2022-08-30T04:01:50;8.85;;;3.10;;
53261;SDS011;39658;51.090;-1.786;2022-08-30T04:04:17;13.23;;;3.92;;
53261;SDS011;39658;51.090;-1.786;2022-08-30T04:06:43;12.73;;;3.70;;
53261;SDS011;39658;51.090;-1.786;2022-08-30T04:09:10;14.07;;;3.95;;
53261;SDS011;39658;51.090;-1.786;2022-08-30T04:11:37;10.93;;;3.33;;
53261;SDS011;39658;51.090;-1.786;2022-08-30T04:14:04;13.40;;;4.10;;
53261;SDS011;39658;51.090;-1.786;2022-08-30T04:16:32;11.98;;;3.80;;
53261;SDS011;39658;51.090;-1.786;2022-08-30T04:18:59;11.07;;;3.83;;
53261;SDS011;39658;51.090;-1.786;2022-08-30T04:21:26;10.65;;;4.05;;
53261;SDS011;39658;51.090;-1.786;2022-08-30T04:23:52;10.80;;;4.25;;
53261;SDS011;39658;51.090;-1.786;2022-08-30T04:26:19;11.20;;;4.18;;
53261;SDS011;39658;51.090;-1.786;2022-08-30T04:28:46;10.00;;;3.67;;
53261;SDS011;39658;51.090;-1.786;2022-08-30T04:31:15;9.70;;;3.88;;
53261;SDS011;39658;51.090;-1.786;2022-08-30T04:33:44;16.33;;;3.83;;
53261;SDS011;39658;51.090;-1.786;2022-08-30T04:36:11;10.75;;;3.50;;
53261;SDS011;39658;51.090;-1.786;2022-08-30T04:38:39;10.30;;;3.38;;
53261;SDS011;39658;51.090;-1.786;2022-08-30T04:41:08;11.98;;;3.70;;
53261;SDS011;39658;51.090;-1.786;2022-08-30T04:43:36;9.82;;;3.42;;
53261;SDS011;39658;51.090;-1.786;2022-08-30T04:46:04;9.00;;;3.50;;
53261;SDS011;39658;51.090;-1.786;2022-08-30T04:48:32;9.55;;;3.70;;
53261;SDS011;39658;51.090;-1.786;2022-08-30T04:51:01;11.63;;;3.72;;
53261;SDS011;39658;51.090;-1.786;2022-08-30T04:53:28;10.10;;;3.50;;
53261;SDS011;39658;51.090;-1.786;2022-08-30T04:55:55;10.95;;;3.25;;
53261;SDS011;39658;51.090;-1.786;2022-08-30T04:58:22;11.95;;;3.67;;
53261;SDS011;39658;51.090;-1.786;2022-08-30T05:00:49;9.07;;;3.40;;
53261;SDS011;39658;51.090;-1.786;2022-08-30T05:03:15;10.65;;;3.45;;
53261;SDS011;39658;51.090;-1.786;2022-08-30T05:05:45;9.32;;;3.25;;
53261;SDS011;39658;51.090;-1.786;2022-08-30T05:08:15;10.63;;;3.92;;
53261;SDS011;39658;51.090;-1.786;2022-08-30T05:10:44;10.27;;;3.45;;
53261;SDS011;39658;51.090;-1.786;2022-08-30T05:13:13;8.13;;;3.22;;
53261;SDS011;39658;51.090;-1.786;2022-08-30T05:15:40;12.18;;;3.65;;
53261;SDS011;39658;51.090;-1.786;2022-08-30T05:18:08;11.82;;;3.50;;
53261;SDS011;39658;51.090;-1.786;2022-08-30T05:20:35;10.32;;;3.97;;
53261;SDS011;39658;51.090;-1.786;2022-08-30T05:23:03;13.57;;;3.88;;
53261;SDS011;39658;51.090;-1.786;2022-08-30T05:25:32;14.38;;;4.50;;
53261;SDS011;39658;51.090;-1.786;2022-08-30T05:28:02;13.48;;;4.13;;
53261;SDS011;39658;51.090;-1.786;2022-08-30T05:30:30;14.40;;;4.85;;
53261;SDS011;39658;51.090;-1.786;2022-08-30T05:32:59;12.63;;;4.30;;
53261;SDS011;39658;51.090;-1.786;2022-08-30T05:35:26;10.63;;;3.63;;
53261;SDS011;39658;51.090;-1.786;2022-08-30T05:37:53;11.65;;;3.85;;
53261;SDS011;39658;51.090;-1.786;2022-08-30T05:40:20;9.75;;;3.53;;
53261;SDS011;39658;51.090;-1.786;2022-08-30T05:42:49;11.15;;;3.70;;
53261;SDS011;39658;51.090;-1.786;2022-08-30T05:45:15;13.48;;;3.80;;
53261;SDS011;39658;51.090;-1.786;2022-08-30T05:47:42;9.35;;;4.05;;
53261;SDS011;39658;51.090;-1.786;2022-08-30T05:50:11;12.23;;;4.05;;
53261;SDS011;39658;51.090;-1.786;2022-08-30T05:52:39;12.13;;;3.42;;
53261;SDS011;39658;51.090;-1.786;2022-08-30T05:55:07;15.05;;;3.58;;
53261;SDS011;39658;51.090;-1.786;2022-08-30T05:57:36;11.13;;;3.40;;
53261;SDS011;39658;51.090;-1.786;2022-08-30T06:00:07;10.40;;;3.50;;
53261;SDS011;39658;51.090;-1.786;2022-08-30T06:02:36;10.82;;;3.42;;
53261;SDS011;39658;51.090;-1.786;2022-08-30T06:05:03;13.05;;;3.83;;
53261;SDS011;39658;51.090;-1.786;2022-08-30T06:07:30;9.30;;;3.40;;
53261;SDS011;39658;51.090;-1.786;2022-08-30T06:09:56;10.93;;;3.22;;
53261;SDS011;39658;51.090;-1.786;2022-08-30T06:12:23;10.00;;;3.30;;
53261;SDS011;39658;51.090;-1.786;2022-08-30T06:14:50;9.35;;;3.15;;
53261;SDS011;39658;51.090;-1.786;2022-08-30T06:17:19;9.26;;;3.62;;
53261;SDS011;39658;51.090;-1.786;2022-08-30T06:19:46;9.93;;;2.78;;
53261;SDS011;39658;51.090;-1.786;2022-08-30T06:22:12;8.32;;;3.05;;
53261;SDS011;39658;51.090;-1.786;2022-08-30T06:24:39;11.70;;;3.25;;
53261;SDS011;39658;51.090;-1.786;2022-08-30T06:27:06;13.98;;;3.30;;
53261;SDS011;39658;51.090;-1.786;2022-08-30T06:29:34;10.68;;;3.10;;
53261;SDS011;39658;51.090;-1.786;2022-08-30T06:32:01;11.25;;;3.15;;
53261;SDS011;39658;51.090;-1.786;2022-08-30T06:34:30;9.35;;;2.63;;
53261;SDS011;39658;51.090;-1.786;2022-08-30T06:36:56;11.32;;;3.00;;
53261;SDS011;39658;51.090;-1.786;2022-08-30T06:39:23;9.63;;;2.83;;
53261;SDS011;39658;51.090;-1.786;2022-08-30T06:41:50;7.50;;;2.83;;
53261;SDS011;39658;51.090;-1.786;2022-08-30T06:44:17;9.77;;;2.88;;
53261;SDS011;39658;51.090;-1.786;2022-08-30T06:46:43;8.13;;;2.90;;
53261;SDS011;39658;51.090;-1.786;2022-08-30T06:49:10;6.15;;;2.17;;
53261;SDS011;39658;51.090;-1.786;2022-08-30T06:51:38;10.15;;;2.70;;
53261;SDS011;39658;51.090;-1.786;2022-08-30T06:54:06;9.27;;;2.78;;
53261;SDS011;39658;51.090;-1.786;2022-08-30T06:56:35;10.27;;;2.40;;
53261;SDS011;39658;51.090;-1.786;2022-08-30T06:59:02;10.45;;;2.58;;
53261;SDS011;39658;51.090;-1.786;2022-08-30T07:01:29;9.25;;;2.78;;
53261;SDS011;39658;51.090;-1.786;2022-08-30T07:03:56;11.27;;;3.10;;
53261;SDS011;39658;51.090;-1.786;2022-08-30T07:06:25;10.07;;;2.97;;
53261;SDS011;39658;51.090;-1.786;2022-08-30T07:08:55;6.97;;;2.58;;
53261;SDS011;39658;51.090;-1.786;2022-08-30T07:11:26;8.63;;;3.10;;
53261;SDS011;39658;51.090;-1.786;2022-08-30T07:13:54;10.20;;;2.92;;
53261;SDS011;39658;51.090;-1.786;2022-08-30T07:16:21;11.35;;;3.28;;
53261;SDS011;39658;51.090;-1.786;2022-08-30T07:18:48;11.23;;;2.93;;
53261;SDS011;39658;51.090;-1.786;2022-08-30T07:21:23;9.97;;;2.93;;
53261;SDS011;39658;51.090;-1.786;2022-08-30T07:23:51;13.07;;;3.33;;
53261;SDS011;39658;51.090;-1.786;2022-08-30T07:26:21;9.60;;;2.83;;
53261;SDS011;39658;51.090;-1.786;2022-08-30T07:28:50;11.63;;;3.47;;
53261;SDS011;39658;51.090;-1.786;2022-08-30T07:31:17;9.88;;;3.00;;
53261;SDS011;39658;51.090;-1.786;2022-08-30T07:33:44;13.45;;;3.30;;
53261;SDS011;39658;51.090;-1.786;2022-08-30T07:36:12;10.05;;;3.45;;
53261;SDS011;39658;51.090;-1.786;2022-08-30T07:38:41;11.52;;;3.35;;
53261;SDS011;39658;51.090;-1.786;2022-08-30T07:41:08;9.82;;;2.83;;
53261;SDS011;39658;51.090;-1.786;2022-08-30T07:43:42;10.18;;;3.03;;
53261;SDS011;39658;51.090;-1.786;2022-08-30T07:46:08;14.68;;;3.58;;
53261;SDS011;39658;51.090;-1.786;2022-08-30T07:48:35;11.90;;;2.95;;
53261;SDS011;39658;51.090;-1.786;2022-08-30T07:51:02;11.18;;;3.20;;
53261;SDS011;39658;51.090;-1.786;2022-08-30T07:53:29;12.13;;;3.00;;
53261;SDS011;39658;51.090;-1.786;2022-08-30T07:55:56;8.75;;;2.42;;
53261;SDS011;39658;51.090;-1.786;2022-08-30T07:58:23;11.57;;;3.38;;
53261;SDS011;39658;51.090;-1.786;2022-08-30T08:00:51;12.48;;;2.88;;
53261;SDS011;39658;51.090;-1.786;2022-08-30T08:03:18;9.25;;;3.10;;
53261;SDS011;39658;51.090;-1.786;2022-08-30T08:05:45;8.48;;;2.80;;
53261;SDS011;39658;51.090;-1.786;2022-08-30T08:08:12;10.70;;;2.90;;
53261;SDS011;39658;51.090;-1.786;2022-08-30T08:10:40;11.75;;;3.15;;
53261;SDS011;39658;51.090;-1.786;2022-08-30T08:13:07;11.90;;;2.92;;
53261;SDS011;39658;51.090;-1.786;2022-08-30T08:15:34;10.10;;;3.40;;
53261;SDS011;39658;51.090;-1.786;2022-08-30T08:18:02;13.15;;;3.13;;
53261;SDS011;39658;51.090;-1.786;2022-08-30T08:20:32;9.48;;;2.75;;
53261;SDS011;39658;51.090;-1.786;2022-08-30T08:23:00;10.88;;;2.80;;
53261;SDS011;39658;51.090;-1.786;2022-08-30T08:25:27;10.35;;;2.60;;
53261;SDS011;39658;51.090;-1.786;2022-08-30T08:27:54;10.77;;;2.70;;
53261;SDS011;39658;51.090;-1.786;2022-08-30T08:30:22;9.67;;;2.70;;
53261;SDS011;39658;51.090;-1.786;2022-08-30T08:32:49;7.83;;;2.40;;
53261;SDS011;39658;51.090;-1.786;2022-08-30T08:35:18;9.40;;;3.13;;
53261;SDS011;39658;51.090;-1.786;2022-08-30T08:37:45;9.10;;;2.28;;
53261;SDS011;39658;51.090;-1.786;2022-08-30T08:40:13;13.20;;;2.92;;
53261;SDS011;39658;51.090;-1.786;2022-08-30T08:43:00;8.82;;;2.40;;
53261;SDS011;39658;51.090;-1.786;2022-08-30T08:45:37;11.30;;;2.85;;
53261;SDS011;39658;51.090;-1.786;2022-08-30T08:48:13;11.07;;;2.65;;
53261;SDS011;39658;51.090;-1.786;2022-08-30T08:50:53;8.57;;;2.50;;
53261;SDS011;39658;51.090;-1.786;2022-08-30T08:53:37;10.52;;;2.72;;
53261;SDS011;39658;51.090;-1.786;2022-08-30T08:56:06;12.80;;;2.10;;
53261;SDS011;39658;51.090;-1.786;2022-08-30T08:58:40;11.95;;;2.47;;
53261;SDS011;39658;51.090;-1.786;2022-08-30T09:01:09;12.23;;;2.38;;
53261;SDS011;39658;51.090;-1.786;2022-08-30T09:03:38;10.98;;;2.50;;
53261;SDS011;39658;51.090;-1.786;2022-08-30T09:06:09;12.02;;;2.60;;
53261;SDS011;39658;51.090;-1.786;2022-08-30T09:08:48;13.65;;;2.67;;
53261;SDS011;39658;51.090;-1.786;2022-08-30T09:11:17;10.18;;;2.47;;
53261;SDS011;39658;51.090;-1.786;2022-08-30T09:13:48;11.18;;;2.92;;
53261;SDS011;39658;51.090;-1.786;2022-08-30T09:19:26;7.97;;;2.33;;
53261;SDS011;39658;51.090;-1.786;2022-08-30T09:21:56;9.88;;;2.60;;
53261;SDS011;39658;51.090;-1.786;2022-08-30T09:24:25;7.78;;;2.53;;
53261;SDS011;39658;51.090;-1.786;2022-08-30T09:26:52;7.53;;;2.13;;
53261;SDS011;39658;51.090;-1.786;2022-08-30T09:29:19;6.95;;;2.38;;
53261;SDS011;39658;51.090;-1.786;2022-08-30T09:31:47;9.48;;;2.08;;
53261;SDS011;39658;51.090;-1.786;2022-08-30T09:34:18;10.50;;;2.20;;
53261;SDS011;39658;51.090;-1.786;2022-08-30T09:36:48;12.00;;;2.53;;
53261;SDS011;39658;51.090;-1.786;2022-08-30T09:39:18;9.52;;;2.28;;
53261;SDS011;39658;51.090;-1.786;2022-08-30T09:41:54;9.32;;;2.42;;
53261;SDS011;39658;51.090;-1.786;2022-08-30T09:44:38;10.48;;;2.28;;
53261;SDS011;39658;51.090;-1.786;2022-08-30T09:47:05;8.60;;;2.70;;
53261;SDS011;39658;51.090;-1.786;2022-08-30T09:49:44;8.48;;;2.50;;
53261;SDS011;39658;51.090;-1.786;2022-08-30T09:52:13;7.80;;;2.58;;
53261;SDS011;39658;51.090;-1.786;2022-08-30T09:54:47;9.97;;;2.87;;
53261;SDS011;39658;51.090;-1.786;2022-08-30T09:57:29;9.18;;;2.45;;
53261;SDS011;39658;51.090;-1.786;2022-08-30T10:00:04;10.98;;;2.67;;
53261;SDS011;39658;51.090;-1.786;2022-08-30T10:02:46;8.43;;;2.42;;
53261;SDS011;39658;51.090;-1.786;2022-08-30T10:05:34;9.05;;;2.90;;
53261;SDS011;39658;51.090;-1.786;2022-08-30T10:08:19;8.32;;;2.22;;
53261;SDS011;39658;51.090;-1.786;2022-08-30T10:10:57;8.07;;;2.60;;
53261;SDS011;39658;51.090;-1.786;2022-08-30T10:13:33;8.90;;;2.15;;
53261;SDS011;39658;51.090;-1.786;2022-08-30T10:16:09;8.63;;;2.50;;
53261;SDS011;39658;51.090;-1.786;2022-08-30T10:18:46;10.27;;;2.67;;
53261;SDS011;39658;51.090;-1.786;2022-08-30T10:21:20;9.20;;;2.58;;
53261;SDS011;39658;51.090;-1.786;2022-08-30T10:23:52;8.27;;;2.47;;
53261;SDS011;39658;51.090;-1.786;2022-08-30T10:26:25;9.02;;;2.72;;
53261;SDS011;39658;51.090;-1.786;2022-08-30T10:31:27;10.20;;;2.22;;
53261;SDS011;39658;51.090;-1.786;2022-08-30T10:34:02;8.82;;;2.53;;
53261;SDS011;39658;51.090;-1.786;2022-08-30T10:36:36;11.38;;;2.70;;
53261;SDS011;39658;51.090;-1.786;2022-08-30T10:39:08;9.65;;;2.92;;
53261;SDS011;39658;51.090;-1.786;2022-08-30T10:41:43;9.70;;;2.50;;
53261;SDS011;39658;51.090;-1.786;2022-08-30T10:44:17;10.70;;;3.00;;
53261;SDS011;39658;51.090;-1.786;2022-08-30T10:46:51;8.87;;;2.70;;
53261;SDS011;39658;51.090;-1.786;2022-08-30T10:49:27;10.00;;;2.70;;
53261;SDS011;39658;51.090;-1.786;2022-08-30T10:51:56;10.65;;;2.65;;
53261;SDS011;39658;51.090;-1.786;2022-08-30T10:54:33;14.98;;;2.97;;
53261;SDS011;39658;51.090;-1.786;2022-08-30T10:57:08;13.18;;;3.00;;
53261;SDS011;39658;51.090;-1.786;2022-08-30T10:59:36;12.23;;;3.00;;
53261;SDS011;39658;51.090;-1.786;2022-08-30T11:02:15;9.02;;;2.80;;
53261;SDS011;39658;51.090;-1.786;2022-08-30T11:07:47;8.95;;;2.40;;
53261;SDS011;39658;51.090;-1.786;2022-08-30T11:10:29;9.43;;;2.88;;
53261;SDS011;39658;51.090;-1.786;2022-08-30T11:13:08;9.90;;;2.80;;
53261;SDS011;39658;51.090;-1.786;2022-08-30T11:15:51;10.27;;;2.80;;
53261;SDS011;39658;51.090;-1.786;2022-08-30T11:18:22;9.32;;;2.30;;
53261;SDS011;39658;51.090;-1.786;2022-08-30T11:20:50;8.90;;;2.72;;
53261;SDS011;39658;51.090;-1.786;2022-08-30T11:23:26;7.30;;;2.30;;
53261;SDS011;39658;51.090;-1.786;2022-08-30T11:25:57;11.15;;;2.70;;
53261;SDS011;39658;51.090;-1.786;2022-08-30T11:31:39;7.55;;;2.30;;
53261;SDS011;39658;51.090;-1.786;2022-08-30T11:34:07;8.05;;;2.58;;
53261;SDS011;39658;51.090;-1.786;2022-08-30T11:42:31;11.38;;;3.17;;
53261;SDS011;39658;51.090;-1.786;2022-08-30T11:48:07;11.77;;;3.30;;
53261;SDS011;39658;51.090;-1.786;2022-08-30T11:51:30;8.38;;;2.78;;
53261;SDS011;39658;51.090;-1.786;2022-08-30T11:54:08;9.57;;;2.60;;
53261;SDS011;39658;51.090;-1.786;2022-08-30T11:56:46;9.95;;;2.72;;
53261;SDS011;39658;51.090;-1.786;2022-08-30T11:59:20;10.27;;;2.95;;
53261;SDS011;39658;51.090;-1.786;2022-08-30T12:01:53;13.52;;;3.05;;
53261;SDS011;39658;51.090;-1.786;2022-08-30T12:04:27;9.15;;;3.15;;
53261;SDS011;39658;51.090;-1.786;2022-08-30T12:07:02;8.93;;;2.92;;
53261;SDS011;39658;51.090;-1.786;2022-08-30T12:15:24;9.07;;;2.83;;
53261;SDS011;39658;51.090;-1.786;2022-08-30T12:18:14;12.35;;;3.03;;
53261;SDS011;39658;51.090;-1.786;2022-08-30T12:20:55;12.25;;;3.22;;
53261;SDS011;39658;51.090;-1.786;2022-08-30T12:23:31;9.18;;;2.50;;
53261;SDS011;39658;51.090;-1.786;2022-08-30T12:26:14;9.95;;;2.90;;
53261;SDS011;39658;51.090;-1.786;2022-08-30T12:29:04;8.85;;;2.80;;
53261;SDS011;39658;51.090;-1.786;2022-08-30T12:31:40;10.13;;;2.80;;
53261;SDS011;39658;51.090;-1.786;2022-08-30T12:34:15;7.50;;;2.20;;
53261;SDS011;39658;51.090;-1.786;2022-08-30T12:36:49;10.10;;;3.05;;
53261;SDS011;39658;51.090;-1.786;2022-08-30T12:39:20;10.57;;;3.00;;
53261;SDS011;39658;51.090;-1.786;2022-08-30T12:41:49;10.15;;;2.83;;
53261;SDS011;39658;51.090;-1.786;2022-08-30T12:44:17;10.32;;;2.85;;
53261;SDS011;39658;51.090;-1.786;2022-08-30T12:46:48;9.20;;;2.63;;
53261;SDS011;39658;51.090;-1.786;2022-08-30T12:49:18;7.95;;;2.55;;
53261;SDS011;39658;51.090;-1.786;2022-08-30T12:51:50;12.90;;;3.05;;
53261;SDS011;39658;51.090;-1.786;2022-08-30T12:54:19;10.15;;;2.97;;
53261;SDS011;39658;51.090;-1.786;2022-08-30T12:56:49;7.97;;;2.80;;
53261;SDS011;39658;51.090;-1.786;2022-08-30T12:59:41;12.27;;;3.08;;
53261;SDS011;39658;51.090;-1.786;2022-08-30T13:02:13;10.82;;;3.25;;
53261;SDS011;39658;51.090;-1.786;2022-08-30T13:04:41;10.80;;;3.20;;
53261;SDS011;39658;51.090;-1.786;2022-08-30T13:07:22;10.45;;;2.80;;
53261;SDS011;39658;51.090;-1.786;2022-08-30T13:09:50;8.20;;;2.38;;
53261;SDS011;39658;51.090;-1.786;2022-08-30T13:12:26;7.57;;;2.53;;
53261;SDS011;39658;51.090;-1.786;2022-08-30T13:14:55;8.30;;;2.88;;
53261;SDS011;39658;51.090;-1.786;2022-08-30T13:17:36;10.82;;;2.65;;
53261;SDS011;39658;51.090;-1.786;2022-08-30T13:20:04;7.57;;;2.67;;
53261;SDS011;39658;51.090;-1.786;2022-08-30T13:23:00;9.05;;;2.72;;
53261;SDS011;39658;51.090;-1.786;2022-08-30T13:25:30;9.70;;;2.75;;
53261;SDS011;39658;51.090;-1.786;2022-08-30T13:27:58;7.20;;;2.53;;
53261;SDS011;39658;51.090;-1.786;2022-08-30T13:30:26;7.80;;;2.33;;
53261;SDS011;39658;51.090;-1.786;2022-08-30T13:32:54;11.20;;;3.10;;
53261;SDS011;39658;51.090;-1.786;2022-08-30T13:35:21;8.32;;;2.53;;
53261;SDS011;39658;51.090;-1.786;2022-08-30T13:37:48;7.65;;;2.47;;
53261;SDS011;39658;51.090;-1.786;2022-08-30T13:40:16;8.30;;;2.50;;
53261;SDS011;39658;51.090;-1.786;2022-08-30T13:42:45;10.75;;;3.28;;
53261;SDS011;39658;51.090;-1.786;2022-08-30T13:45:12;7.45;;;2.53;;
53261;SDS011;39658;51.090;-1.786;2022-08-30T13:47:40;7.95;;;2.22;;
53261;SDS011;39658;51.090;-1.786;2022-08-30T13:50:08;8.10;;;2.60;;
53261;SDS011;39658;51.090;-1.786;2022-08-30T13:52:35;8.77;;;2.30;;
53261;SDS011;39658;51.090;-1.786;2022-08-30T13:55:02;8.45;;;2.35;;
53261;SDS011;39658;51.090;-1.786;2022-08-30T13:57:32;8.65;;;2.53;;
53261;SDS011;39658;51.090;-1.786;2022-08-30T13:59:59;7.38;;;2.25;;
53261;SDS011;39658;51.090;-1.786;2022-08-30T14:02:25;8.80;;;2.03;;
53261;SDS011;39658;51.090;-1.786;2022-08-30T14:04:52;10.60;;;2.50;;
53261;SDS011;39658;51.090;-1.786;2022-08-30T14:07:19;6.65;;;2.13;;
53261;SDS011;39658;51.090;-1.786;2022-08-30T14:09:46;9.85;;;2.50;;
53261;SDS011;39658;51.090;-1.786;2022-08-30T14:12:12;8.00;;;2.47;;
53261;SDS011;39658;51.090;-1.786;2022-08-30T14:14:40;8.60;;;2.78;;
53261;SDS011;39658;51.090;-1.786;2022-08-30T14:17:07;10.85;;;2.42;;
53261;SDS011;39658;51.090;-1.786;2022-08-30T14:19:34;7.72;;;2.33;;
53261;SDS011;39658;51.090;-1.786;2022-08-30T14:22:01;7.23;;;2.50;;
53261;SDS011;39658;51.090;-1.786;2022-08-30T14:24:27;7.68;;;2.33;;
53261;SDS011;39658;51.090;-1.786;2022-08-30T14:26:54;7.25;;;2.20;;
53261;SDS011;39658;51.090;-1.786;2022-08-30T14:29:22;7.55;;;2.60;;
53261;SDS011;39658;51.090;-1.786;2022-08-30T14:31:55;8.57;;;2.70;;
53261;SDS011;39658;51.090;-1.786;2022-08-30T14:34:23;11.43;;;3.08;;
53261;SDS011;39658;51.090;-1.786;2022-08-30T14:36:50;6.30;;;2.15;;
53261;SDS011;39658;51.090;-1.786;2022-08-30T14:39:18;10.40;;;2.85;;
53261;SDS011;39658;51.090;-1.786;2022-08-30T14:41:46;10.55;;;3.10;;
53261;SDS011;39658;51.090;-1.786;2022-08-30T14:44:15;7.30;;;2.38;;
53261;SDS011;39658;51.090;-1.786;2022-08-30T14:46:43;9.90;;;2.45;;
53261;SDS011;39658;51.090;-1.786;2022-08-30T14:49:11;6.47;;;2.40;;
53261;SDS011;39658;51.090;-1.786;2022-08-30T14:51:39;7.20;;;2.20;;
53261;SDS011;39658;51.090;-1.786;2022-08-30T14:54:07;6.13;;;2.20;;
53261;SDS011;39658;51.090;-1.786;2022-08-30T14:56:35;9.90;;;2.45;;
53261;SDS011;39658;51.090;-1.786;2022-08-30T14:59:02;9.68;;;2.35;;
53261;SDS011;39658;51.090;-1.786;2022-08-30T15:01:29;8.43;;;2.35;;
53261;SDS011;39658;51.090;-1.786;2022-08-30T15:03:57;6.88;;;2.13;;
53261;SDS011;39658;51.090;-1.786;2022-08-30T15:06:25;6.18;;;2.30;;
53261;SDS011;39658;51.090;-1.786;2022-08-30T15:08:53;6.90;;;2.15;;